Time;durP1;ratioP1;P1;durP2;ratioP2;P2;SDS_P1;SDS_P2;PMS_P1;PMS_P2;Temp;Humidity;BMP_temperature;BMP_pressure;BME280_temperature;BME280_humidity;BME280_pressure;Samples;Min_cycle;Max_cycle;Signal;HPM_P1;HPM_P2
2022/12/05 00:00:01;;;;;;;;;;;4.50;99.90;;;;;;5084393;28;19963;-68
2022/12/05 00:02:28;;;;;;;;;;;4.50;99.90;;;;;;5084590;28;19927;-69
2022/12/05 00:04:54;;;;;;;;;;;4.50;99.90;;;;;;5084314;28;19951;-69
2022/12/05 00:07:21;;;;;;;;;;;4.50;99.90;;;;;;5083688;28;19948;-68
2022/12/05 00:09:47;;;;;;;;;;;4.50;99.90;;;;;;5083976;28;20217;-68
2022/12/05 00:12:14;;;;;;;;;;;4.50;99.90;;;;;;5084018;28;20093;-68
2022/12/05 00:14:41;;;;;;;;;;;4.50;99.90;;;;;;5083789;28;19966;-68
2022/12/05 00:17:09;;;;;;;;;;;4.40;99.90;;;;;;5083480;28;19967;-68
2022/12/05 00:19:35;;;;;;;;;;;4.40;99.90;;;;;;5084324;28;19952;-68
2022/12/05 00:22:02;;;;;;;;;;;4.40;99.90;;;;;;5091274;28;20361;-68
2022/12/05 00:24:29;;;;;;;;;;;4.40;99.90;;;;;;5104097;28;19962;-68
2022/12/05 00:26:55;;;;;;;;;;;4.30;99.90;;;;;;5103650;28;19986;-68
2022/12/05 00:29:22;;;;;;;;;;;4.30;99.90;;;;;;5104302;28;19955;-69
2022/12/05 00:31:49;;;;;;;;;;;4.30;99.90;;;;;;5104071;28;19956;-68
2022/12/05 00:34:17;;;;;;;;;;;4.30;99.90;;;;;;5104108;28;19962;-68
2022/12/05 00:36:43;;;;;;;;;;;4.30;99.90;;;;;;5103225;28;19979;-68
2022/12/05 00:39:11;;;;;;;;;;;4.30;99.90;;;;;;5103774;28;19958;-68
2022/12/05 00:41:38;;;;;;;;;;;4.20;99.90;;;;;;5104108;28;19923;-69
2022/12/05 00:44:05;;;;;;;;;;;4.10;99.90;;;;;;5103922;28;19986;-68
2022/12/05 00:46:32;;;;;;;;;;;4.20;99.90;;;;;;5103352;28;19955;-68
2022/12/05 00:49:00;;;;;;;;;;;4.20;99.90;;;;;;5103816;28;19955;-69
2022/12/05 00:51:28;;;;;;;;;;;4.20;99.90;;;;;;5103995;28;19955;-68
2022/12/05 00:53:57;;;;;;;;;;;4.10;99.90;;;;;;5103528;28;19995;-68
2022/12/05 00:56:24;;;;;;;;;;;4.10;99.90;;;;;;5103045;28;19999;-68
2022/12/05 00:58:52;;;;;;;;;;;4.10;99.90;;;;;;5103352;28;19931;-68
2022/12/05 01:01:20;;;;;;;;;;;4.10;99.90;;;;;;5103485;28;20180;-68
2022/12/05 01:03:47;;;;;;;;;;;4.10;99.90;;;;;;5103699;28;19988;-68
2022/12/05 01:06:15;;;;;;;;;;;4.10;99.90;;;;;;5102883;28;19978;-69
2022/12/05 01:08:43;;;;;;;;;;;4.10;99.90;;;;;;5103613;28;19952;-68
2022/12/05 01:11:11;;;;;;;;;;;4.20;99.90;;;;;;5103798;28;20192;-68
2022/12/05 01:13:37;;;;;;;;;;;4.10;99.90;;;;;;5103480;28;19979;-68
2022/12/05 01:16:04;;;;;;;;;;;4.10;99.90;;;;;;5103478;28;20176;-69
2022/12/05 01:18:31;;;;;;;;;;;4.10;99.90;;;;;;5105259;28;19927;-69
2022/12/05 01:20:58;;;;;;;;;;;4.10;99.90;;;;;;5107532;28;19951;-68
2022/12/05 01:23:24;;;;;;;;;;;4.00;99.90;;;;;;5109030;28;20057;-69
2022/12/05 01:25:52;;;;;;;;;;;4.00;99.90;;;;;;5106481;28;19970;-69
2022/12/05 01:28:19;;;;;;;;;;;4.00;99.90;;;;;;5103215;28;19943;-68
2022/12/05 01:30:47;;;;;;;;;;;4.00;99.90;;;;;;5103743;28;19991;-68
2022/12/05 01:33:14;;;;;;;;;;;3.90;99.90;;;;;;5103604;28;19954;-69
2022/12/05 01:35:41;;;;;;;;;;;3.90;99.90;;;;;;5103334;28;19951;-68
2022/12/05 01:38:08;;;;;;;;;;;3.90;99.90;;;;;;5103028;28;19987;-68
2022/12/05 01:40:35;;;;;;;;;;;3.90;99.90;;;;;;5103164;28;20268;-69
2022/12/05 01:43:04;;;;;;;;;;;3.90;99.90;;;;;;5103521;28;19920;-68
2022/12/05 01:45:32;;;;;;;;;;;3.90;99.90;;;;;;5103402;28;19927;-68
2022/12/05 01:47:59;;;;;;;;;;;3.90;99.90;;;;;;5102528;28;20055;-68
2022/12/05 01:50:25;;;;;;;;;;;3.80;99.90;;;;;;5103435;28;20017;-68
2022/12/05 01:52:52;;;;;;;;;;;3.90;99.90;;;;;;5103309;28;19948;-69
2022/12/05 01:55:19;;;;;;;;;;;3.90;99.90;;;;;;5103016;28;20353;-68
2022/12/05 01:57:47;;;;;;;;;;;3.90;99.90;;;;;;5102741;28;19994;-68
2022/12/05 02:00:17;;;;;;;;;;;3.90;99.90;;;;;;5103238;28;19947;-68
2022/12/05 02:02:45;;;;;;;;;;;3.80;99.90;;;;;;5099380;28;19979;-68
2022/12/05 02:05:16;;;;;;;;;;;3.80;99.90;;;;;;5100091;28;19947;-68
2022/12/05 02:07:43;;;;;;;;;;;3.80;99.90;;;;;;5102727;28;19955;-68
2022/12/05 02:10:10;;;;;;;;;;;3.80;99.90;;;;;;5103097;28;20164;-69
2022/12/05 02:12:37;;;;;;;;;;;3.70;99.90;;;;;;5102862;28;20171;-67
2022/12/05 02:15:07;;;;;;;;;;;3.70;99.90;;;;;;5102950;28;19959;-69
2022/12/05 02:17:48;;;;;;;;;;;3.70;99.90;;;;;;5108749;28;20253;-68
2022/12/05 02:20:23;;;;;;;;;;;3.70;99.90;;;;;;5127143;28;19970;-68
2022/12/05 02:23:02;;;;;;;;;;;3.70;99.90;;;;;;5126903;28;19947;-68
2022/12/05 02:25:39;;;;;;;;;;;3.70;99.90;;;;;;5127061;28;19951;-68
2022/12/05 02:28:29;;;;;;;;;;;3.70;99.90;;;;;;5126394;28;19987;-73
2022/12/05 02:30:59;;;;;;;;;;;3.60;99.90;;;;;;5086210;28;20148;-68
2022/12/05 02:33:31;;;;;;;;;;;3.60;99.90;;;;;;5086052;28;19959;-68
2022/12/05 02:36:03;;;;;;;;;;;3.60;99.90;;;;;;5085843;28;19960;-68
2022/12/05 02:38:34;;;;;;;;;;;3.60;99.90;;;;;;5085754;28;19920;-68
2022/12/05 02:41:05;;;;;;;;;;;3.50;99.90;;;;;;5086157;28;19992;-68
2022/12/05 02:43:34;;;;;;;;;;;3.60;99.90;;;;;;5086118;28;19962;-68
2022/12/05 02:46:06;;;;;;;;;;;3.50;99.90;;;;;;5085418;28;20030;-68
2022/12/05 02:48:34;;;;;;;;;;;3.40;99.90;;;;;;5085866;28;19987;-68
2022/12/05 02:51:01;;;;;;;;;;;3.40;99.90;;;;;;5085781;28;20179;-68
2022/12/05 02:53:29;;;;;;;;;;;3.30;99.90;;;;;;5085853;28;19962;-68
2022/12/05 02:55:56;;;;;;;;;;;3.30;99.90;;;;;;5085198;28;19994;-68
2022/12/05 02:58:25;;;;;;;;;;;3.30;99.90;;;;;;5085003;28;19920;-69
2022/12/05 03:00:53;;;;;;;;;;;3.30;99.90;;;;;;5085737;28;19926;-68
2022/12/05 03:03:22;;;;;;;;;;;3.40;99.90;;;;;;5085596;28;19987;-68
2022/12/05 03:05:51;;;;;;;;;;;3.30;99.90;;;;;;5085473;28;20181;-68
2022/12/05 03:08:19;;;;;;;;;;;3.40;99.90;;;;;;5085293;28;19960;-68
2022/12/05 03:10:47;;;;;;;;;;;3.40;99.90;;;;;;5085702;28;19956;-68
2022/12/05 03:13:16;;;;;;;;;;;3.30;99.90;;;;;;5085285;28;19993;-68
2022/12/05 03:15:45;;;;;;;;;;;3.30;99.90;;;;;;5085040;28;19992;-68
2022/12/05 03:18:14;;;;;;;;;;;3.40;99.90;;;;;;5084643;28;19982;-68
2022/12/05 03:20:45;;;;;;;;;;;3.30;99.90;;;;;;5091862;28;19952;-68
2022/12/05 03:23:14;;;;;;;;;;;3.30;99.90;;;;;;5105009;28;20146;-68
2022/12/05 03:25:44;;;;;;;;;;;3.30;99.90;;;;;;5105194;28;19962;-68
2022/12/05 03:28:16;;;;;;;;;;;3.30;99.90;;;;;;5105241;28;19967;-68
2022/12/05 03:30:43;;;;;;;;;;;3.30;99.90;;;;;;5103927;28;19955;-68
2022/12/05 03:33:11;;;;;;;;;;;3.30;99.90;;;;;;5104301;28;20295;-68
2022/12/05 03:35:43;;;;;;;;;;;3.30;99.90;;;;;;5104939;28;19951;-69
2022/12/05 03:38:12;;;;;;;;;;;3.20;99.90;;;;;;5104463;28;19999;-68
2022/12/05 03:40:42;;;;;;;;;;;3.30;99.90;;;;;;5105157;28;19956;-68
2022/12/05 03:43:10;;;;;;;;;;;3.30;99.90;;;;;;5104973;28;19920;-68
2022/12/05 03:45:39;;;;;;;;;;;3.30;99.90;;;;;;5104794;28;19988;-68
2022/12/05 03:48:10;;;;;;;;;;;3.30;99.90;;;;;;5104472;28;19952;-68
2022/12/05 03:50:38;;;;;;;;;;;3.20;99.90;;;;;;5104935;28;19956;-68
2022/12/05 03:53:07;;;;;;;;;;;3.20;99.90;;;;;;5104740;28;19955;-68
2022/12/05 03:55:36;;;;;;;;;;;3.20;99.90;;;;;;5104301;28;19963;-68
2022/12/05 03:58:06;;;;;;;;;;;3.30;99.90;;;;;;5104133;28;19963;-69
2022/12/05 04:00:35;;;;;;;;;;;3.30;99.90;;;;;;5104268;28;19920;-69
2022/12/05 04:03:04;;;;;;;;;;;3.30;99.90;;;;;;5104392;28;19958;-69
2022/12/05 04:05:32;;;;;;;;;;;3.30;99.90;;;;;;5104174;28;19994;-68
2022/12/05 04:08:01;;;;;;;;;;;3.20;99.90;;;;;;5103633;28;19987;-68
2022/12/05 04:10:29;;;;;;;;;;;3.30;99.90;;;;;;5104284;28;20313;-69
2022/12/05 04:13:16;;;;;;;;;;;3.30;99.90;;;;;;5104323;28;19983;-68
2022/12/05 04:18:28;;;;;;;;;;;3.30;99.90;;;;;;5102992;28;19927;-69
2022/12/05 04:23:40;;;;;;;;;;;3.20;99.90;;;;;;5104174;28;20230;-69
2022/12/05 04:26:08;;;;;;;;;;;3.10;99.90;;;;;;5098139;28;19988;-68
2022/12/05 04:28:38;;;;;;;;;;;3.10;99.90;;;;;;5092021;28;19924;-68
2022/12/05 04:31:06;;;;;;;;;;;3.00;99.90;;;;;;5083747;28;19957;-68
2022/12/05 04:33:36;;;;;;;;;;;3.00;99.90;;;;;;5083769;28;19992;-68
2022/12/05 04:36:07;;;;;;;;;;;2.90;99.90;;;;;;5083508;28;19920;-69
2022/12/05 04:38:38;;;;;;;;;;;2.90;99.90;;;;;;5083632;28;19958;-69
2022/12/05 04:41:06;;;;;;;;;;;2.80;99.90;;;;;;5083025;28;19950;-69
2022/12/05 04:43:34;;;;;;;;;;;2.90;99.90;;;;;;5083558;28;19979;-69
2022/12/05 04:46:04;;;;;;;;;;;2.80;99.90;;;;;;5082776;28;19995;-69
2022/12/05 04:48:31;;;;;;;;;;;2.70;99.90;;;;;;5084735;28;19979;-69
2022/12/05 04:50:58;;;;;;;;;;;2.70;99.90;;;;;;5103614;28;19992;-69
2022/12/05 04:53:27;;;;;;;;;;;2.70;99.90;;;;;;5103625;28;19955;-68
2022/12/05 04:55:55;;;;;;;;;;;2.70;99.90;;;;;;5103311;28;19962;-69
2022/12/05 04:58:23;;;;;;;;;;;2.60;99.90;;;;;;5103268;28;19980;-68
2022/12/05 05:00:52;;;;;;;;;;;2.70;99.90;;;;;;5103523;28;19955;-68
2022/12/05 05:03:23;;;;;;;;;;;2.60;99.90;;;;;;5103654;28;19962;-69
2022/12/05 05:05:51;;;;;;;;;;;2.60;99.90;;;;;;5103081;28;20251;-68
2022/12/05 05:08:19;;;;;;;;;;;2.60;99.90;;;;;;5102914;28;20350;-69
2022/12/05 05:10:50;;;;;;;;;;;2.60;99.90;;;;;;5103796;28;19966;-69
2022/12/05 05:13:16;;;;;;;;;;;2.60;99.90;;;;;;5103149;28;19952;-68
2022/12/05 05:15:43;;;;;;;;;;;2.60;99.90;;;;;;5102767;28;19971;-68
2022/12/05 05:18:10;;;;;;;;;;;2.50;99.90;;;;;;5102795;28;19920;-68
2022/12/05 05:20:38;;;;;;;;;;;2.50;99.90;;;;;;5103513;28;19958;-69
2022/12/05 05:23:05;;;;;;;;;;;2.50;99.90;;;;;;5102984;28;19995;-69
2022/12/05 05:25:31;;;;;;;;;;;2.40;99.90;;;;;;5103333;28;19920;-68
2022/12/05 05:27:58;;;;;;;;;;;2.40;99.90;;;;;;5102499;28;19951;-68
2022/12/05 05:30:25;;;;;;;;;;;2.50;99.90;;;;;;5103492;28;19951;-69
2022/12/05 05:32:52;;;;;;;;;;;2.50;99.90;;;;;;5103237;28;19951;-68
2022/12/05 05:35:19;;;;;;;;;;;2.40;99.90;;;;;;5103250;28;19951;-69
2022/12/05 05:37:47;;;;;;;;;;;2.50;99.90;;;;;;5111040;28;19924;-68
2022/12/05 05:40:14;;;;;;;;;;;2.50;99.90;;;;;;5123411;28;19957;-68
2022/12/05 05:42:42;;;;;;;;;;;2.60;99.90;;;;;;5110311;28;20085;-69
2022/12/05 05:45:09;;;;;;;;;;;2.60;99.90;;;;;;5102880;28;19988;-68
2022/12/05 05:47:36;;;;;;;;;;;2.60;99.90;;;;;;5102507;28;20171;-67
2022/12/05 05:50:04;;;;;;;;;;;2.70;99.90;;;;;;5099498;28;20228;-68
2022/12/05 05:52:32;;;;;;;;;;;2.60;99.90;;;;;;5090234;28;19955;-68
2022/12/05 05:55:00;;;;;;;;;;;2.60;99.90;;;;;;5086538;28;19951;-68
2022/12/05 05:57:26;;;;;;;;;;;2.70;99.90;;;;;;5086234;28;20108;-68
2022/12/05 05:59:53;;;;;;;;;;;2.70;99.90;;;;;;5089686;28;20239;-69
2022/12/05 06:02:20;;;;;;;;;;;2.60;99.90;;;;;;5106010;28;19983;-68
2022/12/05 06:04:47;;;;;;;;;;;2.70;99.90;;;;;;5106796;28;19943;-69
2022/12/05 06:07:13;;;;;;;;;;;2.60;99.90;;;;;;5106431;28;19920;-68
2022/12/05 06:09:40;;;;;;;;;;;2.70;99.90;;;;;;5107012;28;19924;-68
2022/12/05 06:12:08;;;;;;;;;;;2.60;99.90;;;;;;5106773;28;20247;-69
2022/12/05 06:14:35;;;;;;;;;;;2.60;99.90;;;;;;5106085;28;19992;-68
2022/12/05 06:17:01;;;;;;;;;;;2.60;99.90;;;;;;5105893;28;20000;-68
2022/12/05 06:19:28;;;;;;;;;;;2.60;99.90;;;;;;5106329;28;19967;-67
2022/12/05 06:21:55;;;;;;;;;;;2.60;99.90;;;;;;5106929;28;19956;-73
2022/12/05 06:24:21;;;;;;;;;;;2.60;99.90;;;;;;5106441;28;19956;-67
2022/12/05 06:26:48;;;;;;;;;;;2.60;99.90;;;;;;5105377;28;19987;-67
2022/12/05 06:29:16;;;;;;;;;;;2.60;99.90;;;;;;5106266;28;19951;-67
2022/12/05 06:31:42;;;;;;;;;;;2.70;99.90;;;;;;5106708;28;19963;-67
2022/12/05 06:34:09;;;;;;;;;;;2.70;99.90;;;;;;5106417;28;19979;-69
2022/12/05 06:36:42;;;;;;;;;;;2.70;99.90;;;;;;5103166;28;20101;-69
2022/12/05 06:39:08;;;;;;;;;;;2.70;99.90;;;;;;5106117;28;19920;-68
2022/12/05 06:41:35;;;;;;;;;;;2.70;99.90;;;;;;5085934;28;19927;-68
2022/12/05 06:44:02;;;;;;;;;;;2.70;99.90;;;;;;5085717;28;19943;-68
2022/12/05 06:46:30;;;;;;;;;;;2.70;99.90;;;;;;5082661;28;19963;-68
2022/12/05 06:48:57;;;;;;;;;;;2.70;99.90;;;;;;5085608;28;19960;-68
2022/12/05 06:51:24;;;;;;;;;;;2.70;99.90;;;;;;5085940;28;19952;-68
2022/12/05 06:53:51;;;;;;;;;;;2.70;99.90;;;;;;5085817;28;20124;-68
2022/12/05 06:56:19;;;;;;;;;;;2.70;99.90;;;;;;5084887;28;20231;-69
2022/12/05 06:58:46;;;;;;;;;;;2.70;99.90;;;;;;5085713;28;20166;-68
2022/12/05 07:03:59;;;;;;;;;;;2.70;99.90;;;;;;5085298;28;19923;-68
2022/12/05 07:06:26;;;;;;;;;;;2.60;99.90;;;;;;5085322;28;19990;-68
2022/12/05 07:08:53;;;;;;;;;;;2.70;99.90;;;;;;5085887;28;19921;-68
2022/12/05 07:11:20;;;;;;;;;;;2.60;99.90;;;;;;5085907;28;19963;-68
2022/12/05 07:13:47;;;;;;;;;;;2.70;99.90;;;;;;5082663;28;19927;-68
2022/12/05 07:16:13;;;;;;;;;;;2.60;99.90;;;;;;5084856;28;19983;-68
2022/12/05 07:18:40;;;;;;;;;;;2.60;99.90;;;;;;5085212;28;19956;-68
2022/12/05 07:21:09;;;;;;;;;;;2.70;99.90;;;;;;5085083;28;19983;-68
2022/12/05 07:23:35;;;;;;;;;;;2.70;99.90;;;;;;5085384;28;20181;-68
2022/12/05 07:26:04;;;;;;;;;;;2.70;99.90;;;;;;5084445;28;20262;-69
2022/12/05 07:28:31;;;;;;;;;;;2.70;99.90;;;;;;5085346;28;19951;-68
2022/12/05 07:31:01;;;;;;;;;;;2.80;99.90;;;;;;5085176;28;19959;-68
2022/12/05 07:33:28;;;;;;;;;;;2.80;99.90;;;;;;5084723;28;19962;-68
2022/12/05 07:36:00;;;;;;;;;;;2.80;99.90;;;;;;5082398;28;19963;-67
2022/12/05 07:38:29;;;;;;;;;;;2.80;99.90;;;;;;5085373;28;19966;-68
2022/12/05 07:40:56;;;;;;;;;;;2.90;99.90;;;;;;5102894;28;19942;-68
2022/12/05 07:43:23;;;;;;;;;;;2.90;99.90;;;;;;5106932;28;19970;-69
2022/12/05 07:45:49;;;;;;;;;;;2.90;99.90;;;;;;5105852;28;19974;-69
2022/12/05 07:48:16;;;;;;;;;;;2.90;99.90;;;;;;5104689;28;19983;-68
2022/12/05 07:50:43;;;;;;;;;;;2.90;99.90;;;;;;5104904;28;19982;-68
2022/12/05 07:53:10;;;;;;;;;;;2.90;99.90;;;;;;5098587;28;20279;-68
2022/12/05 07:55:38;;;;;;;;;;;2.90;99.90;;;;;;5104183;28;20231;-68
2022/12/05 07:58:05;;;;;;;;;;;2.90;99.90;;;;;;5104253;28;20170;-68
2022/12/05 08:00:32;;;;;;;;;;;2.90;99.90;;;;;;5094574;28;20239;-68
2022/12/05 08:02:58;;;;;;;;;;;2.90;99.90;;;;;;5084216;28;19955;-68
2022/12/05 08:05:25;;;;;;;;;;;3.00;99.90;;;;;;5090847;28;19983;-68
2022/12/05 08:07:58;;;;;;;;;;;3.00;99.90;;;;;;5081554;28;19956;-68
2022/12/05 08:10:25;;;;;;;;;;;3.00;99.90;;;;;;5084346;28;19955;-68
2022/12/05 08:12:53;;;;;;;;;;;3.00;99.90;;;;;;5083657;28;19956;-68
2022/12/05 08:15:20;;;;;;;;;;;3.00;99.90;;;;;;5083860;28;19963;-69
2022/12/05 08:17:46;;;;;;;;;;;3.00;99.90;;;;;;5083143;28;19963;-68
2022/12/05 08:20:13;;;;;;;;;;;3.00;99.90;;;;;;5084081;28;19956;-68
2022/12/05 08:22:40;;;;;;;;;;;3.00;99.90;;;;;;5084190;28;19988;-68
2022/12/05 08:25:07;;;;;;;;;;;3.00;99.90;;;;;;5084044;28;19921;-68
2022/12/05 08:27:34;;;;;;;;;;;3.00;99.90;;;;;;5083108;28;20288;-69
2022/12/05 08:30:02;;;;;;;;;;;3.00;99.90;;;;;;5085938;28;19948;-68
2022/12/05 08:32:28;;;;;;;;;;;3.10;99.90;;;;;;5103912;28;19921;-68
2022/12/05 08:34:55;;;;;;;;;;;3.10;99.90;;;;;;5104071;28;19962;-68
2022/12/05 08:37:22;;;;;;;;;;;3.20;99.90;;;;;;5103639;28;19955;-68
2022/12/05 08:39:48;;;;;;;;;;;3.20;99.90;;;;;;5103974;28;20164;-69
2022/12/05 08:42:15;;;;;;;;;;;3.10;99.90;;;;;;5104197;28;19951;-68
2022/12/05 08:44:41;;;;;;;;;;;3.20;99.90;;;;;;5103839;28;19966;-68
2022/12/05 08:47:09;;;;;;;;;;;3.20;99.90;;;;;;5098721;28;19992;-68
2022/12/05 08:49:36;;;;;;;;;;;3.20;99.90;;;;;;5083320;28;19963;-68
2022/12/05 08:52:03;;;;;;;;;;;3.20;99.90;;;;;;5083492;28;19984;-68
2022/12/05 08:54:29;;;;;;;;;;;3.20;99.90;;;;;;5083345;28;20204;-68
2022/12/05 08:56:56;;;;;;;;;;;3.20;99.90;;;;;;5082672;28;19988;-68
2022/12/05 08:59:23;;;;;;;;;;;3.20;99.90;;;;;;5097383;28;20111;-69
2022/12/05 09:01:50;;;;;;;;;;;3.20;99.90;;;;;;5090663;28;19951;-68
2022/12/05 09:04:18;;;;;;;;;;;3.20;99.90;;;;;;5103539;28;19920;-68
2022/12/05 09:06:44;;;;;;;;;;;3.20;99.90;;;;;;5102777;28;19956;-68
2022/12/05 09:09:11;;;;;;;;;;;3.30;99.90;;;;;;5103649;28;19987;-68
2022/12/05 09:11:42;;;;;;;;;;;3.30;99.90;;;;;;5103643;28;19955;-69
2022/12/05 09:14:09;;;;;;;;;;;3.30;99.90;;;;;;5103458;28;20155;-69
2022/12/05 09:16:37;;;;;;;;;;;3.20;99.90;;;;;;5103054;28;19920;-68
2022/12/05 09:19:04;;;;;;;;;;;3.30;99.90;;;;;;5103715;28;19990;-68
2022/12/05 09:21:32;;;;;;;;;;;3.30;99.90;;;;;;5090266;28;19920;-68
2022/12/05 09:23:59;;;;;;;;;;;3.30;99.90;;;;;;5087875;28;20006;-68
2022/12/05 09:26:27;;;;;;;;;;;3.30;99.90;;;;;;5090490;28;19951;-69
2022/12/05 09:28:53;;;;;;;;;;;3.30;99.90;;;;;;5106292;28;19979;-69
2022/12/05 09:31:21;;;;;;;;;;;3.30;99.90;;;;;;5094509;28;20204;-69
2022/12/05 09:33:49;;;;;;;;;;;3.40;99.90;;;;;;5090286;28;19928;-68
2022/12/05 09:36:16;;;;;;;;;;;3.40;99.90;;;;;;5106833;28;20132;-68
2022/12/05 09:38:44;;;;;;;;;;;3.40;99.90;;;;;;5107223;28;20175;-68
2022/12/05 09:41:16;;;;;;;;;;;3.40;99.90;;;;;;5107265;28;19926;-68
2022/12/05 09:43:46;;;;;;;;;;;3.40;99.90;;;;;;5107491;28;20084;-69
2022/12/05 09:46:19;;;;;;;;;;;3.40;99.90;;;;;;5106784;28;19920;-68
2022/12/05 09:48:45;;;;;;;;;;;3.50;99.90;;;;;;5095440;28;19951;-69
2022/12/05 09:51:12;;;;;;;;;;;3.50;99.90;;;;;;5087194;28;19958;-68
2022/12/05 09:53:39;;;;;;;;;;;3.50;99.90;;;;;;5086728;28;19927;-69
2022/12/05 09:56:13;;;;;;;;;;;3.50;99.90;;;;;;5103320;28;19959;-69
2022/12/05 09:58:43;;;;;;;;;;;3.50;99.90;;;;;;5106888;28;19996;-68
2022/12/05 10:01:27;;;;;;;;;;;3.50;99.90;;;;;;5106929;28;19920;-68
2022/12/05 10:04:16;;;;;;;;;;;3.50;99.90;;;;;;5107105;28;19920;-68
2022/12/05 10:06:46;;;;;;;;;;;3.50;99.90;;;;;;5091432;28;19920;-68
2022/12/05 10:09:19;;;;;;;;;;;3.50;99.90;;;;;;5086753;28;19952;-69
2022/12/05 10:11:52;;;;;;;;;;;3.50;99.90;;;;;;5086823;28;19988;-69
2022/12/05 10:14:23;;;;;;;;;;;3.50;99.90;;;;;;5086235;28;19920;-69
2022/12/05 10:16:52;;;;;;;;;;;3.50;99.90;;;;;;5085789;28;19956;-68
2022/12/05 10:19:24;;;;;;;;;;;3.50;99.90;;;;;;5086572;28;19920;-69
2022/12/05 10:21:52;;;;;;;;;;;3.60;99.90;;;;;;5087279;28;19956;-69
2022/12/05 10:24:22;;;;;;;;;;;3.60;99.90;;;;;;5105810;28;20118;-69
2022/12/05 10:26:56;;;;;;;;;;;3.60;99.90;;;;;;5103132;28;20139;-68
2022/12/05 10:29:26;;;;;;;;;;;3.60;99.90;;;;;;5106657;28;19935;-71
2022/12/05 10:31:54;;;;;;;;;;;3.60;99.90;;;;;;5106183;28;19958;-69
2022/12/05 10:34:26;;;;;;;;;;;3.60;99.90;;;;;;5106280;28;20228;-69
2022/12/05 10:36:55;;;;;;;;;;;3.70;99.90;;;;;;5105586;28;19940;-69
2022/12/05 10:39:23;;;;;;;;;;;3.70;99.90;;;;;;5104045;28;19966;-69
2022/12/05 10:41:50;;;;;;;;;;;3.70;99.90;;;;;;5106438;28;19947;-69
2022/12/05 10:44:18;;;;;;;;;;;3.60;99.90;;;;;;5106460;28;19996;-68
2022/12/05 10:46:44;;;;;;;;;;;3.70;99.90;;;;;;5105494;28;20097;-69
2022/12/05 10:49:12;;;;;;;;;;;3.70;99.90;;;;;;5104542;28;19992;-68
2022/12/05 10:51:39;;;;;;;;;;;3.70;99.90;;;;;;5106480;28;19958;-69
2022/12/05 10:54:13;;;;;;;;;;;3.70;99.90;;;;;;5106098;28;19991;-68
2022/12/05 10:56:44;;;;;;;;;;;3.70;99.90;;;;;;5105598;28;19927;-69
2022/12/05 10:59:12;;;;;;;;;;;3.70;99.90;;;;;;5105604;28;20230;-69
2022/12/05 11:01:46;;;;;;;;;;;3.70;99.90;;;;;;5085617;28;20249;-69
2022/12/05 11:04:20;;;;;;;;;;;3.70;99.90;;;;;;5085793;28;19952;-69
2022/12/05 11:06:50;;;;;;;;;;;3.80;99.90;;;;;;5086604;28;19983;-69
2022/12/05 11:09:19;;;;;;;;;;;3.70;99.90;;;;;;5097290;28;19952;-69
2022/12/05 11:11:57;;;;;;;;;;;3.80;99.90;;;;;;5085546;28;19992;-69
2022/12/05 11:14:25;;;;;;;;;;;3.80;99.90;;;;;;5087231;28;19955;-69
2022/12/05 11:16:54;;;;;;;;;;;3.80;99.90;;;;;;5104916;28;19920;-69
2022/12/05 11:19:26;;;;;;;;;;;3.70;99.90;;;;;;5105718;28;20279;-69
2022/12/05 11:21:53;;;;;;;;;;;3.80;99.90;;;;;;5105936;28;19955;-69
2022/12/05 11:24:23;;;;;;;;;;;3.80;99.90;;;;;;5091605;28;19951;-69
2022/12/05 11:26:50;;;;;;;;;;;3.80;99.90;;;;;;5084731;28;19955;-69
2022/12/05 11:29:30;;;;;;;;;;;3.80;99.90;;;;;;5085194;28;19958;-69
2022/12/05 11:31:58;;;;;;;;;;;3.80;99.90;;;;;;5085330;28;19921;-69
2022/12/05 11:34:27;;;;;;;;;;;3.90;99.90;;;;;;5085204;28;20178;-69
2022/12/05 11:36:56;;;;;;;;;;;4.00;99.90;;;;;;5084379;28;20156;-69
2022/12/05 11:39:23;;;;;;;;;;;4.10;99.90;;;;;;5085088;28;19983;-69
2022/12/05 11:41:56;;;;;;;;;;;4.10;99.90;;;;;;5102186;28;19979;-68
2022/12/05 11:44:35;;;;;;;;;;;4.10;99.90;;;;;;5105400;28;20079;-69
2022/12/05 11:47:11;;;;;;;;;;;4.10;99.90;;;;;;5097880;28;19959;-68
2022/12/05 11:49:55;;;;;;;;;;;4.10;99.90;;;;;;5083259;28;19962;-68
2022/12/05 11:52:29;;;;;;;;;;;4.10;99.90;;;;;;5088549;28;19983;-69
2022/12/05 11:55:02;;;;;;;;;;;4.20;99.90;;;;;;5103230;28;19955;-69
2022/12/05 11:57:39;;;;;;;;;;;4.10;99.90;;;;;;5104369;28;19951;-69
2022/12/05 12:00:09;;;;;;;;;;;4.10;99.90;;;;;;5104873;28;19963;-68
2022/12/05 12:02:45;;;;;;;;;;;4.10;99.90;;;;;;5104688;28;19946;-69
2022/12/05 12:05:16;;;;;;;;;;;4.10;99.90;;;;;;5104834;28;19962;-69
2022/12/05 12:07:49;;;;;;;;;;;4.10;99.90;;;;;;5103873;28;19920;-68
2022/12/05 12:10:22;;;;;;;;;;;4.20;99.90;;;;;;5102009;28;19990;-68
2022/12/05 12:12:53;;;;;;;;;;;4.20;99.90;;;;;;5104712;28;19927;-68
2022/12/05 12:15:29;;;;;;;;;;;4.20;99.90;;;;;;5104229;28;19951;-69
2022/12/05 12:18:02;;;;;;;;;;;4.10;99.90;;;;;;5083554;28;19924;-69
2022/12/05 12:20:36;;;;;;;;;;;4.20;99.90;;;;;;5084133;28;19971;-69
2022/12/05 12:23:12;;;;;;;;;;;4.20;99.90;;;;;;5084189;28;19928;-69
2022/12/05 12:25:42;;;;;;;;;;;4.20;99.90;;;;;;5083819;28;19920;-69
2022/12/05 12:28:19;;;;;;;;;;;4.20;99.90;;;;;;5083508;28;19991;-69
2022/12/05 12:30:52;;;;;;;;;;;4.20;99.90;;;;;;5083717;28;19962;-69
2022/12/05 12:33:27;;;;;;;;;;;4.30;99.90;;;;;;5083999;28;19953;-69
2022/12/05 12:35:58;;;;;;;;;;;4.30;99.90;;;;;;5083473;28;19929;-69
2022/12/05 12:38:37;;;;;;;;;;;4.30;99.90;;;;;;5098385;28;19920;-69
2022/12/05 12:41:08;;;;;;;;;;;4.30;99.90;;;;;;5103441;28;19963;-69
2022/12/05 12:43:42;;;;;;;;;;;4.40;99.90;;;;;;5103854;28;19956;-69
2022/12/05 12:46:16;;;;;;;;;;;4.40;99.90;;;;;;5102555;28;20390;-69
2022/12/05 12:49:02;;;;;;;;;;;4.40;99.90;;;;;;5090171;28;19921;-69
2022/12/05 12:51:32;;;;;;;;;;;4.40;99.90;;;;;;5101437;28;19966;-68
2022/12/05 12:54:19;;;;;;;;;;;4.40;99.90;;;;;;5104096;28;19951;-69
2022/12/05 12:56:52;;;;;;;;;;;4.50;99.90;;;;;;5103013;28;20212;-69
2022/12/05 12:59:29;;;;;;;;;;;4.50;99.90;;;;;;5103912;28;19969;-69
2022/12/05 13:01:58;;;;;;;;;;;4.50;99.90;;;;;;5103390;28;19923;-69
2022/12/05 13:04:28;;;;;;;;;;;4.60;99.90;;;;;;5102723;28;19950;-69
2022/12/05 13:06:58;;;;;;;;;;;4.50;99.90;;;;;;5092353;28;19954;-69
2022/12/05 13:09:27;;;;;;;;;;;4.50;99.90;;;;;;5103398;28;19951;-67
2022/12/05 13:11:55;;;;;;;;;;;4.50;99.90;;;;;;5102794;28;20266;-68
2022/12/05 13:14:24;;;;;;;;;;;4.60;99.90;;;;;;5103343;28;19959;-68
2022/12/05 13:16:54;;;;;;;;;;;4.60;99.90;;;;;;5100688;28;19924;-72
2022/12/05 13:19:26;;;;;;;;;;;4.50;99.90;;;;;;5114497;28;19920;-68
2022/12/05 13:21:53;;;;;;;;;;;4.50;99.90;;;;;;5110469;28;19988;-69
2022/12/05 13:24:23;;;;;;;;;;;4.50;99.90;;;;;;5120351;28;19978;-69
2022/12/05 13:26:50;;;;;;;;;;;4.50;99.90;;;;;;5103044;28;19920;-68
2022/12/05 13:29:20;;;;;;;;;;;4.50;99.90;;;;;;5103742;28;19929;-69
2022/12/05 13:31:48;;;;;;;;;;;4.50;99.90;;;;;;5101772;28;19984;-70
2022/12/05 13:34:44;;;;;;;;;;;4.50;99.90;;;;;;5105633;28;19982;-69
2022/12/05 13:42:44;;;;;;;;;;;4.50;99.90;;;;;;5083424;28;19928;-69
2022/12/05 13:45:15;;;;;;;;;;;4.50;99.90;;;;;;5083125;28;19956;-69
2022/12/05 13:47:54;;;;;;;;;;;4.60;99.90;;;;;;5093536;28;19955;-70
2022/12/05 13:50:27;;;;;;;;;;;4.50;99.90;;;;;;5102994;28;20200;-69
2022/12/05 13:52:54;;;;;;;;;;;4.50;99.90;;;;;;5103171;28;19956;-69
2022/12/05 13:55:25;;;;;;;;;;;4.50;99.90;;;;;;5103614;28;19951;-69
2022/12/05 13:57:53;;;;;;;;;;;4.40;99.90;;;;;;5102702;28;19940;-70
2022/12/05 14:00:23;;;;;;;;;;;4.50;99.90;;;;;;5103309;28;19991;-69
2022/12/05 14:02:51;;;;;;;;;;;4.50;99.90;;;;;;5103497;28;19927;-68
2022/12/05 14:05:32;;;;;;;;;;;4.50;99.90;;;;;;5105492;28;20243;-69
2022/12/05 14:07:59;;;;;;;;;;;4.40;99.90;;;;;;5099839;28;20307;-68
2022/12/05 14:10:41;;;;;;;;;;;4.50;99.90;;;;;;5094730;28;19948;-69
2022/12/05 14:13:36;;;;;;;;;;;4.40;99.90;;;;;;5103041;28;19959;-69
2022/12/05 14:16:17;;;;;;;;;;;4.40;99.90;;;;;;5086347;28;19960;-69
2022/12/05 14:18:49;;;;;;;;;;;4.40;99.90;;;;;;5102099;28;19954;-69
2022/12/05 14:21:17;;;;;;;;;;;4.40;99.90;;;;;;5127511;28;19920;-69
2022/12/05 14:23:58;;;;;;;;;;;4.40;99.90;;;;;;5124711;28;19951;-69
2022/12/05 14:26:39;;;;;;;;;;;4.40;99.90;;;;;;5123117;28;19955;-69
2022/12/05 14:29:15;;;;;;;;;;;4.30;99.90;;;;;;5080698;28;19951;-70
2022/12/05 14:31:47;;;;;;;;;;;4.40;99.90;;;;;;5106946;28;19987;-69
2022/12/05 14:34:19;;;;;;;;;;;4.30;99.90;;;;;;5106868;28;20156;-69
2022/12/05 14:36:54;;;;;;;;;;;4.30;99.90;;;;;;5085913;28;19924;-69
2022/12/05 14:39:22;;;;;;;;;;;4.30;99.90;;;;;;5086131;28;19958;-69
2022/12/05 14:41:55;;;;;;;;;;;4.30;99.90;;;;;;5086398;28;19921;-69
2022/12/05 14:44:22;;;;;;;;;;;4.20;99.90;;;;;;5102512;28;19955;-69
2022/12/05 14:46:49;;;;;;;;;;;4.20;99.90;;;;;;5126194;28;19982;-69
2022/12/05 14:49:49;;;;;;;;;;;4.20;99.90;;;;;;5126745;28;19955;-69
2022/12/05 14:52:19;;;;;;;;;;;4.20;99.90;;;;;;5126805;28;19951;-69
2022/12/05 14:54:46;;;;;;;;;;;4.20;99.90;;;;;;5126647;28;19951;-70
2022/12/05 14:57:15;;;;;;;;;;;4.20;99.90;;;;;;5125779;28;19991;-69